Time;durP1;ratioP1;P1;durP2;ratioP2;P2;SDS_P1;SDS_P2;PMS_P1;PMS_P2;Temp;Humidity;BMP_temperature;BMP_pressure;BME280_temperature;BME280_humidity;BME280_pressure;Samples;Min_cycle;Max_cycle;Signal;HPM_P1;HPM_P2
2022/01/05 00:01:17;;;;;;;4.17;3.77;;;6.10;99.90;;;;;;6249949;28;20549;-60
2022/01/05 00:04:21;;;;;;;6.67;5.23;;;6.00;99.90;;;;;;6249801;28;20482;-60
2022/01/05 00:07:24;;;;;;;5.00;4.50;;;6.10;99.90;;;;;;6251062;28;20489;-60
2022/01/05 00:10:29;;;;;;;6.13;5.20;;;6.10;99.90;;;;;;6254353;28;20481;-59
2022/01/05 00:13:32;;;;;;;5.40;4.87;;;6.10;99.90;;;;;;6254408;28;20973;-60
2022/01/05 00:16:35;;;;;;;5.33;4.87;;;6.20;99.90;;;;;;6253664;28;20818;-60
2022/01/05 00:19:39;;;;;;;6.07;4.47;;;6.20;99.90;;;;;;6253740;28;20984;-60
2022/01/05 00:22:42;;;;;;;6.80;5.50;;;6.20;99.90;;;;;;6253410;28;20826;-60
2022/01/05 00:25:47;;;;;;;6.33;5.67;;;6.20;99.90;;;;;;6253264;28;20467;-60
2022/01/05 00:28:50;;;;;;;7.07;5.70;;;6.20;99.90;;;;;;6252854;28;20479;-60
2022/01/05 00:31:54;;;;;;;7.43;5.73;;;6.20;99.90;;;;;;6253308;28;20466;-60
2022/01/05 00:34:57;;;;;;;7.30;6.60;;;6.10;99.90;;;;;;6243605;28;20454;-60
2022/01/05 00:38:00;;;;;;;6.60;5.00;;;6.20;99.90;;;;;;6253414;28;20463;-59
2022/01/05 00:41:05;;;;;;;6.43;5.73;;;6.20;99.90;;;;;;6253844;28;20458;-60
2022/01/05 00:44:08;;;;;;;6.17;5.20;;;6.20;99.90;;;;;;6253675;28;20450;-60
2022/01/05 00:47:11;;;;;;;6.43;5.00;;;6.20;99.90;;;;;;6242454;28;20970;-60
2022/01/05 00:50:14;;;;;;;4.87;4.37;;;6.20;99.90;;;;;;6240997;28;20459;-60
2022/01/05 00:53:17;;;;;;;4.77;4.33;;;6.10;99.90;;;;;;6252771;28;20454;-60
2022/01/05 00:56:22;;;;;;;4.90;4.40;;;6.10;99.90;;;;;;6252104;28;20470;-60
2022/01/05 00:59:25;;;;;;;5.73;4.93;;;6.10;99.90;;;;;;6252691;28;20474;-60
2022/01/05 01:02:28;;;;;;;4.17;3.77;;;6.10;99.90;;;;;;6252020;28;20478;-61
2022/01/05 01:05:32;;;;;;;5.40;4.40;;;6.10;99.90;;;;;;6252669;28;20471;-60
2022/01/05 01:08:35;;;;;;;5.43;4.53;;;6.00;99.90;;;;;;6252243;28;20475;-60
2022/01/05 01:11:41;;;;;;;7.93;3.97;;;6.00;99.90;;;;;;6252412;28;20486;-60
2022/01/05 01:14:44;;;;;;;4.80;4.40;;;6.00;99.90;;;;;;6252611;28;20474;-60
2022/01/05 01:17:47;;;;;;;4.87;4.13;;;6.00;99.90;;;;;;6248571;28;20807;-61
2022/01/05 01:20:51;;;;;;;13.60;4.20;;;6.00;99.90;;;;;;6233368;28;20478;-61
2022/01/05 01:23:55;;;;;;;5.70;3.90;;;6.00;99.90;;;;;;6227498;28;20491;-61
2022/01/05 01:27:00;;;;;;;4.00;3.60;;;6.00;99.90;;;;;;6227121;28;20479;-61
2022/01/05 01:30:04;;;;;;;3.97;3.17;;;6.00;99.90;;;;;;6227654;28;20468;-60
2022/01/05 01:33:07;;;;;;;3.87;3.43;;;5.90;99.90;;;;;;6227349;28;20467;-61
2022/01/05 01:36:10;;;;;;;4.80;4.23;;;5.90;99.90;;;;;;6227025;28;20479;-61
2022/01/05 01:39:13;;;;;;;4.30;3.87;;;5.90;99.90;;;;;;6227084;28;20476;-62
2022/01/05 01:42:18;;;;;;;4.33;3.87;;;5.90;99.90;;;;;;6227160;28;20483;-61
2022/01/05 01:45:21;;;;;;;5.40;3.90;;;5.90;99.90;;;;;;6232066;28;20553;-61
2022/01/05 01:48:24;;;;;;;4.00;3.67;;;5.90;99.90;;;;;;6251172;28;20517;-62
2022/01/05 01:51:27;;;;;;;4.20;3.80;;;5.80;99.90;;;;;;6252061;28;20475;-61
2022/01/05 01:54:31;;;;;;;3.33;3.03;;;5.80;99.90;;;;;;6242910;28;20987;-61
2022/01/05 01:57:37;;;;;;;4.80;3.40;;;5.90;99.90;;;;;;6250683;28;20486;-61
2022/01/05 02:00:40;;;;;;;4.47;3.43;;;5.90;99.90;;;;;;6250764;28;20537;-61
2022/01/05 02:03:43;;;;;;;3.47;2.73;;;6.00;99.90;;;;;;6250755;28;20509;-61
2022/01/05 02:06:46;;;;;;;3.30;2.53;;;6.00;99.90;;;;;;6250474;28;20966;-60
2022/01/05 02:09:50;;;;;;;5.33;3.47;;;6.00;99.90;;;;;;6250731;28;20858;-61
2022/01/05 02:12:54;;;;;;;6.57;5.23;;;6.00;99.90;;;;;;6250659;28;20466;-61
2022/01/05 02:15:57;;;;;;;2.77;2.57;;;6.00;99.90;;;;;;6250550;28;20684;-61
2022/01/05 02:19:01;;;;;;;6.60;3.43;;;6.10;99.90;;;;;;6250494;28;20780;-60
2022/01/05 02:22:06;;;;;;;5.53;3.70;;;6.10;99.90;;;;;;6250903;28;20485;-60
2022/01/05 02:25:09;;;;;;;3.57;3.27;;;6.10;99.90;;;;;;6250073;28;20532;-60
2022/01/05 02:28:14;;;;;;;3.67;3.37;;;6.10;99.90;;;;;;6242277;28;20849;-60
2022/01/05 02:31:17;;;;;;;4.10;3.40;;;6.10;99.90;;;;;;6234446;28;20471;-61
2022/01/05 02:34:21;;;;;;;3.40;3.10;;;6.10;99.90;;;;;;6235943;28;20887;-62
2022/01/05 02:37:25;;;;;;;3.67;3.37;;;6.10;99.90;;;;;;6225235;28;20490;-60
2022/01/05 02:40:28;;;;;;;3.03;2.80;;;6.10;99.90;;;;;;6227896;28;20982;-59
2022/01/05 02:43:31;;;;;;;3.40;2.90;;;6.10;99.90;;;;;;6232875;28;20483;-59
2022/01/05 02:46:35;;;;;;;4.63;4.10;;;6.00;99.90;;;;;;6239764;28;20494;-59
2022/01/05 02:49:38;;;;;;;4.37;3.00;;;6.00;99.90;;;;;;6237672;28;20475;-59
2022/01/05 02:52:44;;;;;;;3.23;2.60;;;6.10;99.90;;;;;;6231910;28;20471;-59
2022/01/05 02:55:47;;;;;;;3.77;3.10;;;6.10;99.90;;;;;;6235046;28;20498;-59
2022/01/05 02:58:50;;;;;;;6.00;3.30;;;6.00;99.90;;;;;;6235603;28;20478;-60
2022/01/05 03:01:53;;;;;;;2.93;2.70;;;6.10;99.90;;;;;;6236050;28;20462;-59
2022/01/05 03:04:57;;;;;;;3.30;2.80;;;6.10;99.90;;;;;;6233880;28;20459;-59
2022/01/05 03:08:01;;;;;;;2.80;2.60;;;6.10;99.90;;;;;;6233177;28;20467;-59
2022/01/05 03:11:05;;;;;;;2.80;2.37;;;6.10;99.90;;;;;;6230608;28;20453;-59
2022/01/05 03:14:08;;;;;;;2.93;2.63;;;6.10;99.90;;;;;;6224598;28;20450;-60
2022/01/05 03:17:11;;;;;;;3.30;3.00;;;6.10;99.90;;;;;;6224916;28;20808;-59
2022/01/05 03:20:17;;;;;;;4.90;3.17;;;6.10;99.90;;;;;;6224844;28;20817;-59
2022/01/05 03:23:22;;;;;;;3.00;2.70;;;6.10;99.90;;;;;;6225386;28;20475;-60
2022/01/05 03:26:25;;;;;;;2.87;2.60;;;6.00;99.90;;;;;;6224478;28;20955;-59
2022/01/05 03:29:28;;;;;;;3.17;2.77;;;6.00;99.90;;;;;;6224820;28;20487;-59
2022/01/05 03:32:42;;;;;;;2.90;2.70;;;6.10;99.90;;;;;;6224607;28;21014;-59
2022/01/05 03:35:47;;;;;;;5.37;3.67;;;6.00;99.90;;;;;;6224620;28;20507;-59
2022/01/05 03:38:52;;;;;;;2.83;2.60;;;6.00;99.90;;;;;;6224729;28;20471;-60
2022/01/05 03:41:55;;;;;;;3.07;2.70;;;6.00;99.90;;;;;;6226972;28;20471;-59
2022/01/05 03:44:58;;;;;;;2.70;2.50;;;5.90;99.90;;;;;;6231293;28;20849;-59
2022/01/05 03:48:02;;;;;;;3.73;2.80;;;5.90;99.90;;;;;;6249137;28;20505;-59
2022/01/05 03:51:05;;;;;;;2.87;2.67;;;5.80;99.90;;;;;;6253790;28;20473;-59
2022/01/05 03:54:10;;;;;;;4.27;2.90;;;5.80;99.90;;;;;;6233617;28;20494;-60
2022/01/05 03:57:13;;;;;;;3.50;3.20;;;5.90;99.90;;;;;;6228816;28;20476;-59
2022/01/05 04:00:17;;;;;;;2.87;2.63;;;5.90;99.90;;;;;;6229174;28;20472;-59
2022/01/05 04:03:20;;;;;;;2.40;2.20;;;5.90;99.90;;;;;;6229185;28;20471;-60
2022/01/05 04:06:23;;;;;;;3.43;3.13;;;5.80;99.90;;;;;;6247080;28;20475;-59
2022/01/05 04:09:28;;;;;;;4.10;3.23;;;5.80;99.90;;;;;;6253780;28;20483;-59
2022/01/05 04:12:31;;;;;;;3.00;2.80;;;5.80;99.90;;;;;;6252932;28;21317;-59
2022/01/05 04:15:34;;;;;;;2.90;2.60;;;5.90;99.90;;;;;;6253511;28;20497;-59
2022/01/05 04:18:38;;;;;;;4.67;2.63;;;5.90;99.90;;;;;;6253246;28;20490;-59
2022/01/05 04:21:41;;;;;;;3.17;2.97;;;5.90;99.90;;;;;;6253042;28;20985;-59
2022/01/05 04:24:46;;;;;;;4.27;3.00;;;5.90;99.90;;;;;;6253334;28;20471;-59
2022/01/05 04:27:49;;;;;;;5.87;3.10;;;5.90;99.90;;;;;;6253022;28;20478;-59
2022/01/05 04:30:52;;;;;;;3.40;3.10;;;5.80;99.90;;;;;;6252664;28;21017;-59
2022/01/05 04:33:55;;;;;;;4.50;3.10;;;5.90;99.90;;;;;;6252734;28;20970;-59
2022/01/05 04:37:19;;;;;;;4.63;3.10;;;5.90;99.90;;;;;;6252596;28;20601;-59
2022/01/05 04:40:23;;;;;;;3.23;2.67;;;5.80;99.90;;;;;;6252593;28;20793;-59
2022/01/05 04:43:27;;;;;;;3.57;3.27;;;5.80;99.90;;;;;;6252450;28;20467;-60
2022/01/05 04:46:32;;;;;;;3.50;3.13;;;5.80;99.90;;;;;;6252320;28;20470;-59
2022/01/05 04:49:35;;;;;;;2.80;2.30;;;5.80;99.90;;;;;;6252539;28;21029;-59
2022/01/05 04:52:38;;;;;;;3.07;2.70;;;5.80;99.90;;;;;;6239576;28;20821;-59
2022/01/05 04:55:44;;;;;;;3.83;2.90;;;5.80;99.90;;;;;;6227484;28;20554;-59
2022/01/05 04:58:47;;;;;;;3.00;2.47;;;5.80;99.90;;;;;;6227644;28;20472;-59
2022/01/05 05:01:50;;;;;;;3.20;2.90;;;5.80;99.90;;;;;;6227631;28;20483;-59
2022/01/05 05:04:54;;;;;;;4.63;3.03;;;5.90;99.90;;;;;;6233557;28;20489;-59
2022/01/05 05:07:57;;;;;;;2.57;2.30;;;5.90;99.90;;;;;;6252205;28;20466;-59
2022/01/05 05:11:02;;;;;;;5.07;2.80;;;5.90;99.90;;;;;;6251663;28;20479;-59
2022/01/05 05:14:05;;;;;;;3.27;2.97;;;5.90;99.90;;;;;;6252192;28;20443;-59
2022/01/05 05:17:08;;;;;;;3.00;2.80;;;5.80;99.90;;;;;;6251380;28;20474;-57
2022/01/05 05:20:12;;;;;;;3.50;3.20;;;5.80;99.90;;;;;;6251602;28;20937;-58
2022/01/05 05:23:16;;;;;;;3.80;3.50;;;5.80;99.90;;;;;;6251754;28;20810;-57
2022/01/05 05:26:21;;;;;;;3.27;3.00;;;5.90;99.90;;;;;;6251553;28;20474;-58
2022/01/05 05:29:24;;;;;;;4.93;3.50;;;5.80;99.90;;;;;;6251586;28;20478;-57
2022/01/05 05:32:27;;;;;;;3.63;3.33;;;5.80;99.90;;;;;;6251277;28;21023;-58
2022/01/05 05:35:30;;;;;;;5.70;3.77;;;5.80;99.90;;;;;;6251699;28;20483;-58
2022/01/05 05:38:34;;;;;;;4.30;3.90;;;5.80;99.90;;;;;;6251114;28;20477;-58
2022/01/05 05:41:38;;;;;;;4.30;3.23;;;5.80;99.90;;;;;;6251270;28;20467;-58
2022/01/05 05:44:41;;;;;;;4.63;3.80;;;5.80;99.90;;;;;;6251346;28;20475;-58
2022/01/05 05:47:44;;;;;;;3.67;3.07;;;5.70;99.90;;;;;;6227097;28;20483;-58
2022/01/05 05:50:47;;;;;;;3.33;3.03;;;5.80;99.90;;;;;;6226617;28;20495;-58
2022/01/05 05:53:51;;;;;;;5.50;4.13;;;5.80;99.90;;;;;;6226669;28;20519;-58
2022/01/05 05:56:55;;;;;;;3.53;3.23;;;5.80;99.90;;;;;;6225941;28;20475;-58
2022/01/05 05:59:58;;;;;;;2.73;2.53;;;5.80;99.90;;;;;;6226454;28;20468;-58
2022/01/05 06:03:02;;;;;;;3.40;3.10;;;5.80;99.90;;;;;;6226629;28;20514;-58
2022/01/05 06:06:05;;;;;;;3.13;2.83;;;5.80;99.90;;;;;;6241256;28;20569;-58
2022/01/05 06:09:08;;;;;;;3.30;3.00;;;5.90;99.90;;;;;;6250595;28;20471;-58
2022/01/05 06:12:13;;;;;;;3.03;2.83;;;5.90;99.90;;;;;;6250453;28;20475;-58
2022/01/05 06:15:16;;;;;;;3.40;3.10;;;5.90;99.90;;;;;;6250322;28;20482;-58
2022/01/05 06:18:19;;;;;;;3.33;3.03;;;5.90;99.90;;;;;;6250347;28;20486;-58
2022/01/05 06:21:22;;;;;;;4.50;4.10;;;6.00;99.90;;;;;;6250390;28;20486;-58
2022/01/05 06:24:26;;;;;;;4.27;3.67;;;6.00;99.90;;;;;;6250243;28;20498;-58
2022/01/05 06:27:30;;;;;;;4.67;3.90;;;5.90;99.90;;;;;;6250326;28;20799;-58
2022/01/05 06:30:33;;;;;;;3.70;3.27;;;5.90;99.90;;;;;;6250115;28;20490;-58
2022/01/05 06:33:36;;;;;;;3.83;3.50;;;5.90;99.90;;;;;;6249848;28;20470;-58
2022/01/05 06:36:39;;;;;;;4.80;3.20;;;5.90;99.90;;;;;;6249770;28;20478;-58
2022/01/05 06:39:43;;;;;;;4.83;4.40;;;6.00;99.90;;;;;;6250044;28;20475;-58
2022/01/05 06:42:47;;;;;;;4.13;3.73;;;6.00;99.90;;;;;;6249827;28;20539;-59
2022/01/05 06:45:50;;;;;;;4.00;3.57;;;6.10;99.90;;;;;;6249684;28;20478;-58
2022/01/05 06:48:54;;;;;;;5.23;3.73;;;6.20;99.90;;;;;;6249809;28;20467;-58
2022/01/05 06:51:57;;;;;;;6.00;3.70;;;6.30;99.90;;;;;;6248056;28;20470;-58
2022/01/05 06:55:00;;;;;;;4.90;3.70;;;6.30;99.90;;;;;;6225439;28;20545;-58
2022/01/05 06:58:04;;;;;;;5.30;3.40;;;6.40;99.90;;;;;;6216165;28;20472;-59
2022/01/05 07:01:07;;;;;;;3.50;3.03;;;6.40;99.90;;;;;;6225075;28;20782;-59
2022/01/05 07:04:11;;;;;;;4.07;3.67;;;6.50;99.90;;;;;;6225173;28;21053;-58
2022/01/05 07:07:14;;;;;;;4.30;3.17;;;6.60;99.90;;;;;;6249612;28;21014;-57
2022/01/05 07:10:18;;;;;;;6.80;4.40;;;6.60;99.90;;;;;;6249678;28;20493;-57
2022/01/05 07:13:23;;;;;;;4.63;3.40;;;6.70;99.90;;;;;;6249019;28;20613;-58
2022/01/05 07:16:26;;;;;;;3.07;2.80;;;6.70;99.90;;;;;;6250518;28;20475;-59
2022/01/05 07:19:29;;;;;;;4.13;3.60;;;6.80;99.90;;;;;;6254085;28;20985;-59
2022/01/05 07:22:32;;;;;;;5.10;3.70;;;6.80;99.90;;;;;;6254267;28;20473;-59
2022/01/05 07:25:36;;;;;;;4.47;3.90;;;6.90;99.90;;;;;;6254641;28;20474;-59
2022/01/05 07:28:40;;;;;;;3.50;3.20;;;6.90;99.90;;;;;;6254204;28;20478;-59
2022/01/05 07:31:43;;;;;;;3.87;3.47;;;6.90;99.90;;;;;;6254527;28;20485;-59
2022/01/05 07:34:47;;;;;;;4.30;3.20;;;6.90;99.90;;;;;;6253367;28;20475;-59
2022/01/05 07:37:50;;;;;;;3.87;3.53;;;7.00;99.90;;;;;;6253968;28;20478;-59
2022/01/05 07:40:53;;;;;;;6.63;3.80;;;7.10;99.90;;;;;;6254135;28;20782;-59
2022/01/05 07:43:57;;;;;;;4.80;4.13;;;7.10;99.90;;;;;;6254005;28;21108;-59
2022/01/05 07:47:00;;;;;;;2.97;2.77;;;7.10;99.90;;;;;;6253986;28;20548;-59
2022/01/05 07:50:06;;;;;;;4.13;3.73;;;7.20;99.90;;;;;;6254112;28;20451;-59
2022/01/05 07:53:09;;;;;;;4.40;4.00;;;7.20;99.90;;;;;;6241908;28;20824;-58
2022/01/05 07:56:12;;;;;;;4.20;3.47;;;7.30;99.90;;;;;;6228975;28;20491;-59
2022/01/05 07:59:17;;;;;;;5.40;3.47;;;7.30;99.90;;;;;;6229781;28;20454;-58
2022/01/05 08:02:20;;;;;;;4.50;3.90;;;7.30;99.90;;;;;;6229274;28;20486;-58
2022/01/05 08:05:23;;;;;;;3.80;3.50;;;7.30;99.90;;;;;;6239313;28;21008;-58
2022/01/05 08:08:26;;;;;;;3.43;3.03;;;7.40;99.90;;;;;;6253447;28;20469;-59
2022/01/05 08:11:30;;;;;;;4.37;3.80;;;7.50;99.90;;;;;;6253272;28;20512;-58
2022/01/05 08:14:34;;;;;;;3.70;3.40;;;7.50;99.90;;;;;;6253397;28;20529;-58
2022/01/05 08:17:39;;;;;;;4.37;3.60;;;7.70;99.90;;;;;;6253147;28;20477;-58
2022/01/05 08:20:43;;;;;;;6.60;3.70;;;7.70;99.90;;;;;;6252954;28;20462;-58
2022/01/05 08:23:46;;;;;;;3.67;3.37;;;7.80;99.90;;;;;;6253432;28;20471;-58
2022/01/05 08:26:49;;;;;;;7.53;3.80;;;7.80;99.90;;;;;;6252891;28;20474;-59
2022/01/05 08:29:53;;;;;;;3.80;3.50;;;7.80;99.90;;;;;;6251904;28;20471;-59
2022/01/05 08:32:57;;;;;;;4.73;3.60;;;7.90;99.90;;;;;;6253278;28;20963;-58
2022/01/05 08:36:01;;;;;;;9.73;4.40;;;8.00;99.90;;;;;;6252719;28;20475;-59
2022/01/05 08:39:05;;;;;;;6.90;3.50;;;8.10;99.90;;;;;;6252964;28;20474;-58
2022/01/05 08:42:08;;;;;;;3.87;3.47;;;8.10;99.90;;;;;;6252413;28;20471;-58
2022/01/05 08:45:14;;;;;;;5.60;3.83;;;8.20;99.90;;;;;;6252020;28;20475;-58
2022/01/05 08:48:17;;;;;;;5.93;3.67;;;8.30;99.90;;;;;;6252073;28;20635;-59
2022/01/05 08:51:21;;;;;;;4.57;3.67;;;8.40;99.90;;;;;;6252140;28;20485;-59
2022/01/05 08:54:24;;;;;;;5.53;3.87;;;8.40;99.90;;;;;;6230341;28;20479;-58
2022/01/05 08:57:27;;;;;;;6.53;3.50;;;8.40;99.90;;;;;;6226787;28;20472;-59
2022/01/05 09:00:32;;;;;;;6.87;3.70;;;8.50;99.90;;;;;;6227433;28;20479;-59
2022/01/05 09:03:35;;;;;;;5.20;3.33;;;8.60;99.90;;;;;;6222669;28;20475;-58
2022/01/05 09:06:39;;;;;;;5.17;3.77;;;8.60;99.90;;;;;;6247750;28;20486;-59
2022/01/05 09:09:42;;;;;;;4.20;3.80;;;8.70;99.90;;;;;;6251699;28;20467;-59
2022/01/05 09:12:45;;;;;;;6.00;4.17;;;8.70;99.90;;;;;;6251426;28;20486;-59
2022/01/05 09:15:50;;;;;;;5.40;3.67;;;8.80;99.90;;;;;;6251640;28;20489;-59
2022/01/05 09:18:53;;;;;;;4.43;3.90;;;8.70;99.90;;;;;;6251152;28;20849;-59
2022/01/05 09:21:56;;;;;;;6.13;4.10;;;8.60;99.90;;;;;;6251624;28;20482;-59
2022/01/05 09:25:19;;;;;;;4.53;4.23;;;8.60;99.90;;;;;;6251645;28;20808;-59
2022/01/05 09:28:23;;;;;;;5.43;4.80;;;8.60;99.90;;;;;;6251186;28;20806;-59
2022/01/05 09:31:27;;;;;;;7.63;4.57;;;8.60;99.90;;;;;;6251148;28;20479;-59
2022/01/05 09:34:31;;;;;;;5.80;4.20;;;8.50;99.90;;;;;;6250904;28;20491;-60
2022/01/05 09:37:39;;;;;;;4.37;3.37;;;8.50;99.90;;;;;;6251351;28;20507;-59
2022/01/05 09:44:06;;;;;;;1.63;1.53;;;8.50;99.90;;;;;;6250945;28;20781;-59
2022/01/05 09:47:38;;;;;;;2.87;2.33;;;8.50;99.90;;;;;;6250885;28;20789;-58
2022/01/05 09:50:50;;;;;;;2.00;1.20;;;8.50;99.90;;;;;;6250981;28;20486;-59
2022/01/05 09:53:54;;;;;;;1.13;1.10;;;8.50;99.90;;;;;;6233482;28;20808;-58
2022/01/05 09:57:21;;;;;;;1.10;0.83;;;8.50;99.90;;;;;;6225720;28;20585;-59
2022/01/05 10:00:24;;;;;;;3.53;1.20;;;8.60;99.90;;;;;;6226940;28;20472;-58
2022/01/05 10:03:28;;;;;;;1.00;0.90;;;8.60;99.90;;;;;;6238958;28;20495;-58
2022/01/05 10:06:34;;;;;;;1.23;1.13;;;8.60;99.90;;;;;;6234684;28;20548;-58
2022/01/05 10:09:38;;;;;;;0.70;0.70;;;8.60;99.90;;;;;;6238139;28;20471;-59
2022/01/05 10:12:41;;;;;;;1.47;1.00;;;8.60;99.90;;;;;;6236944;28;20486;-58
2022/01/05 10:15:47;;;;;;;0.50;0.50;;;8.50;99.90;;;;;;6236968;28;20482;-58
2022/01/05 10:18:51;;;;;;;0.87;0.70;;;8.50;99.90;;;;;;6236603;28;20467;-59
2022/01/05 10:21:56;;;;;;;0.87;0.87;;;8.50;99.90;;;;;;6238499;28;20474;-59
2022/01/05 10:25:01;;;;;;;1.27;0.83;;;8.50;99.90;;;;;;6237638;28;20476;-59
2022/01/05 10:28:05;;;;;;;0.90;0.67;;;8.50;99.90;;;;;;6238818;28;20479;-60
2022/01/05 10:31:15;;;;;;;0.80;0.80;;;8.50;99.90;;;;;;6233430;28;20476;-59
2022/01/05 10:34:22;;;;;;;0.70;0.60;;;8.50;99.90;;;;;;6236020;28;20477;-59
2022/01/05 10:37:26;;;;;;;0.90;0.73;;;8.50;99.90;;;;;;6236496;28;20471;-59
2022/01/05 10:40:32;;;;;;;1.37;0.70;;;8.50;99.90;;;;;;6235774;28;20475;-59
2022/01/05 10:43:35;;;;;;;2.50;0.80;;;8.50;99.90;;;;;;6235632;28;20783;-58
2022/01/05 10:46:40;;;;;;;0.70;0.70;;;8.50;99.90;;;;;;6236428;28;20483;-63
2022/01/05 10:49:45;;;;;;;0.70;0.70;;;8.50;99.90;;;;;;6237539;28;20562;-58
2022/01/05 10:52:56;;;;;;;3.03;0.80;;;8.50;99.90;;;;;;6237235;28;20471;-60
2022/01/05 10:55:59;;;;;;;1.10;0.77;;;8.60;99.90;;;;;;6224740;28;20487;-59
2022/01/05 10:59:03;;;;;;;2.20;1.10;;;8.60;99.90;;;;;;6224489;28;20475;-59
2022/01/05 11:02:23;;;;;;;1.07;0.80;;;8.60;99.90;;;;;;6223643;28;20943;-59
2022/01/05 11:05:28;;;;;;;1.70;0.90;;;8.50;99.90;;;;;;6235397;28;20486;-59
2022/01/05 11:08:31;;;;;;;0.80;0.70;;;8.50;99.90;;;;;;6239457;28;20478;-59
2022/01/05 11:11:37;;;;;;;1.00;1.00;;;8.60;99.90;;;;;;6249037;28;20466;-59
2022/01/05 11:14:40;;;;;;;1.33;1.23;;;8.60;99.90;;;;;;6249616;28;20481;-60
2022/01/05 11:18:08;;;;;;;1.90;1.53;;;8.50;99.90;;;;;;6249538;28;20489;-59
2022/01/05 11:21:13;;;;;;;1.20;0.90;;;8.60;99.90;;;;;;6249708;28;20471;-59
2022/01/05 11:24:16;;;;;;;1.57;0.93;;;8.60;99.90;;;;;;6249180;28;20482;-59
2022/01/05 11:27:22;;;;;;;3.10;1.00;;;8.60;99.90;;;;;;6249466;28;20528;-59
2022/01/05 11:30:25;;;;;;;1.30;1.00;;;8.60;99.90;;;;;;6249377;28;20471;-61
2022/01/05 11:33:29;;;;;;;0.97;0.97;;;8.60;99.90;;;;;;6249364;28;20468;-59
2022/01/05 11:36:33;;;;;;;1.40;1.30;;;8.50;99.90;;;;;;6249229;28;20471;-59
2022/01/05 11:39:44;;;;;;;2.00;0.90;;;8.50;99.90;;;;;;6249633;28;20473;-59
2022/01/05 11:42:48;;;;;;;1.40;1.10;;;8.50;99.90;;;;;;6249305;28;20459;-60
2022/01/05 11:45:52;;;;;;;1.50;0.90;;;8.50;99.90;;;;;;6249102;28;20475;-60
2022/01/05 11:49:00;;;;;;;2.77;1.50;;;8.60;99.90;;;;;;6249172;28;20481;-59
2022/01/05 11:52:05;;;;;;;2.70;1.20;;;8.60;99.90;;;;;;6246090;28;20480;-60
2022/01/05 11:55:08;;;;;;;0.97;0.97;;;8.70;99.90;;;;;;6224424;28;20479;-59
2022/01/05 11:58:16;;;;;;;1.33;1.23;;;8.70;99.90;;;;;;6224339;28;20836;-59
2022/01/05 12:01:26;;;;;;;1.47;1.37;;;8.80;99.90;;;;;;6224481;28;20479;-59
2022/01/05 12:04:30;;;;;;;1.10;1.00;;;8.80;99.90;;;;;;6231775;28;20471;-60
2022/01/05 12:07:40;;;;;;;2.30;1.43;;;8.80;99.90;;;;;;6253499;28;20471;-59
2022/01/05 12:10:53;;;;;;;0.93;0.90;;;8.80;99.90;;;;;;6253380;28;20806;-59
2022/01/05 12:13:57;;;;;;;1.10;1.00;;;8.80;99.90;;;;;;6239535;28;20803;-59
2022/01/05 12:17:12;;;;;;;0.80;0.80;;;8.80;99.90;;;;;;6252639;28;20473;-60
2022/01/05 12:20:15;;;;;;;1.77;1.30;;;8.80;99.90;;;;;;6253431;28;20420;-60
2022/01/05 12:23:24;;;;;;;1.30;1.20;;;8.80;99.90;;;;;;6253440;28;20446;-60
2022/01/05 12:26:28;;;;;;;1.63;1.53;;;8.90;99.90;;;;;;6252740;28;20533;-60
2022/01/05 12:29:31;;;;;;;2.60;1.60;;;8.90;99.90;;;;;;6253087;28;20474;-60
2022/01/05 12:32:43;;;;;;;1.10;1.00;;;9.00;99.90;;;;;;6252742;28;20483;-60
2022/01/05 12:35:52;;;;;;;1.57;1.47;;;9.10;99.90;;;;;;6252770;28;20788;-60
2022/01/05 12:38:57;;;;;;;1.60;1.50;;;9.10;99.90;;;;;;6252227;28;20467;-60
2022/01/05 12:42:22;;;;;;;1.20;1.10;;;9.10;99.90;;;;;;6252662;28;20970;-60
2022/01/05 12:45:47;;;;;;;1.30;1.10;;;9.10;99.90;;;;;;6252872;28;20467;-61
2022/01/05 12:49:10;;;;;;;1.47;1.37;;;9.10;99.90;;;;;;6252388;28;20875;-60
2022/01/05 12:52:16;;;;;;;1.40;1.20;;;9.10;99.90;;;;;;6249036;28;20483;-61
2022/01/05 12:55:22;;;;;;;1.47;1.37;;;9.10;99.90;;;;;;6240989;28;20499;-62
2022/01/05 12:58:26;;;;;;;1.40;1.30;;;9.10;99.90;;;;;;6244671;28;20958;-62
2022/01/05 13:01:31;;;;;;;1.67;1.50;;;9.10;99.90;;;;;;6240451;28;20970;-61
2022/01/05 13:04:36;;;;;;;1.47;1.30;;;9.10;99.90;;;;;;6244424;28;20562;-61
2022/01/05 13:07:41;;;;;;;2.40;1.53;;;9.10;99.90;;;;;;6241767;28;20484;-61
2022/01/05 13:10:46;;;;;;;0.83;0.80;;;9.10;99.90;;;;;;6246359;28;20558;-60
2022/01/05 13:13:49;;;;;;;2.50;1.37;;;9.20;99.90;;;;;;6242365;28;20479;-61
2022/01/05 13:16:54;;;;;;;1.27;1.17;;;9.20;99.90;;;;;;6229774;28;20498;-63
2022/01/05 13:20:08;;;;;;;1.40;1.30;;;9.10;99.90;;;;;;6241290;28;20475;-61
2022/01/05 13:23:11;;;;;;;2.80;2.07;;;9.10;99.90;;;;;;6247587;28;20440;-61
2022/01/05 13:26:18;;;;;;;7.47;4.20;;;8.90;99.90;;;;;;6231256;28;20606;-61
2022/01/05 13:29:22;;;;;;;6.17;3.90;;;8.90;99.90;;;;;;6245671;28;20467;-63
2022/01/05 13:32:27;;;;;;;3.67;3.00;;;8.90;99.90;;;;;;6236534;28;20464;-60
2022/01/05 13:35:37;;;;;;;3.40;2.60;;;8.80;99.90;;;;;;6235093;28;20467;-62
2022/01/05 13:38:41;;;;;;;4.70;3.50;;;8.80;99.90;;;;;;6250881;28;20471;-61
2022/01/05 13:41:56;;;;;;;5.33;4.73;;;8.80;99.90;;;;;;6226110;28;20478;-61
2022/01/05 13:45:00;;;;;;;6.97;4.67;;;8.70;99.90;;;;;;6226091;28;20479;-60
2022/01/05 13:48:06;;;;;;;5.20;4.70;;;8.50;99.90;;;;;;6233483;28;20475;-60
2022/01/05 13:51:10;;;;;;;6.20;5.60;;;8.20;99.90;;;;;;6250691;28;20811;-58
2022/01/05 13:54:14;;;;;;;7.57;4.77;;;8.00;99.90;;;;;;6249956;28;20475;-59
2022/01/05 13:57:30;;;;;;;7.67;4.87;;;8.10;99.90;;;;;;6242354;28;20475;-59
2022/01/05 14:00:34;;;;;;;5.67;4.93;;;8.10;99.90;;;;;;6237798;28;20812;-61
2022/01/05 14:03:40;;;;;;;7.13;4.70;;;8.00;99.90;;;;;;6250709;28;20463;-58
2022/01/05 14:06:43;;;;;;;8.00;4.70;;;7.90;99.90;;;;;;6250496;28;20475;-58
2022/01/05 14:10:01;;;;;;;5.87;5.33;;;7.90;99.90;;;;;;6250590;28;20475;-58
2022/01/05 14:13:08;;;;;;;9.20;5.57;;;7.90;99.90;;;;;;6250658;28;20472;-58
2022/01/05 14:16:15;;;;;;;5.03;4.53;;;7.90;99.90;;;;;;6250761;28;20486;-58
2022/01/05 14:19:25;;;;;;;6.70;6.00;;;7.90;99.90;;;;;;6241601;28;20482;-58
2022/01/05 14:22:30;;;;;;;5.70;5.10;;;7.90;99.90;;;;;;6250707;28;20474;-58
2022/01/05 14:25:43;;;;;;;8.13;4.50;;;7.90;99.90;;;;;;6249244;28;20974;-58
2022/01/05 14:28:48;;;;;;;4.90;4.37;;;7.90;99.90;;;;;;6250540;28;20475;-58
2022/01/05 14:32:12;;;;;;;5.50;4.43;;;8.00;99.90;;;;;;6233846;28;20525;-58
2022/01/05 14:35:18;;;;;;;5.70;4.33;;;7.90;99.90;;;;;;6249651;28;20510;-59
2022/01/05 14:38:21;;;;;;;8.37;5.80;;;7.90;99.90;;;;;;6250276;28;20581;-58
2022/01/05 14:41:38;;;;;;;5.73;5.10;;;7.90;99.90;;;;;;6249835;28;20467;-56
2022/01/05 14:44:48;;;;;;;7.00;4.57;;;8.00;99.90;;;;;;6249911;28;20478;-57
2022/01/05 14:48:07;;;;;;;5.30;4.80;;;7.90;99.90;;;;;;6224833;28;20972;-58
2022/01/05 14:51:11;;;;;;;8.70;5.57;;;7.90;99.90;;;;;;6225289;28;20468;-58
2022/01/05 14:54:15;;;;;;;6.80;4.90;;;7.90;99.90;;;;;;6225220;28;20479;-58
2022/01/05 14:57:19;;;;;;;5.97;4.50;;;8.00;99.90;;;;;;6225105;28;20472;-60
2022/01/05 15:00:25;;;;;;;5.83;4.70;;;7.90;99.90;;;;;;6225038;28;20479;-61
2022/01/05 15:03:29;;;;;;;7.50;5.53;;;7.90;99.90;;;;;;6227539;28;20533;-60
2022/01/05 15:06:33;;;;;;;11.77;6.60;;;7.70;99.90;;;;;;6249441;28;20471;-59
2022/01/05 15:09:42;;;;;;;9.20;6.20;;;7.60;99.90;;;;;;6250087;28;20467;-57
2022/01/05 15:12:46;;;;;;;8.00;5.87;;;7.50;99.90;;;;;;6249789;28;20899;-57
2022/01/05 15:15:51;;;;;;;6.10;5.53;;;7.60;99.90;;;;;;6249244;28;20970;-59
2022/01/05 15:18:54;;;;;;;6.13;5.30;;;7.60;99.90;;;;;;6249971;28;20491;-59
2022/01/05 15:21:57;;;;;;;5.73;5.13;;;7.60;99.90;;;;;;6245118;28;20478;-60
2022/01/05 15:25:00;;;;;;;6.90;5.87;;;7.70;99.90;;;;;;6249694;28;20538;-58
2022/01/05 15:28:05;;;;;;;7.50;6.17;;;7.80;99.90;;;;;;6249272;28;20487;-58
2022/01/05 15:31:10;;;;;;;10.60;7.10;;;7.80;99.90;;;;;;6249830;28;20482;-58
2022/01/05 15:34:15;;;;;;;7.17;5.80;;;7.90;99.90;;;;;;6249591;28;20478;-58
2022/01/05 15:37:18;;;;;;;6.37;5.77;;;7.90;99.90;;;;;;6250706;28;20976;-59
2022/01/05 15:40:21;;;;;;;6.20;3.50;;;7.90;99.90;;;;;;6254445;28;20490;-58
2022/01/05 15:43:24;;;;;;;8.13;4.00;;;7.90;99.90;;;;;;6254331;28;20540;-58
2022/01/05 15:46:29;;;;;;;4.50;3.67;;;7.90;99.90;;;;;;6239395;28;20479;-58
2022/01/05 15:49:32;;;;;;;6.97;4.30;;;7.90;99.90;;;;;;6227737;28;20490;-59
2022/01/05 15:52:35;;;;;;;6.97;4.27;;;7.80;99.90;;;;;;6242893;28;20478;-59
2022/01/05 15:55:45;;;;;;;7.60;4.60;;;7.80;99.90;;;;;;6236307;28;20994;-59
2022/01/05 16:02:11;;;;;;;9.20;4.60;;;7.70;99.90;;;;;;6229974;28;20448;-58
2022/01/05 16:05:15;;;;;;;5.53;4.50;;;7.70;99.90;;;;;;6238444;28;20825;-56
2022/01/05 16:08:18;;;;;;;7.13;4.33;;;7.70;99.90;;;;;;6254007;28;20434;-57
2022/01/05 16:11:21;;;;;;;5.63;4.47;;;7.80;99.90;;;;;;6253915;28;20474;-57
2022/01/05 16:14:25;;;;;;;6.83;4.30;;;7.80;99.90;;;;;;6253610;28;20953;-57
2022/01/05 16:17:30;;;;;;;4.63;4.10;;;7.80;99.90;;;;;;6253608;28;20481;-58
2022/01/05 16:20:33;;;;;;;5.30;4.73;;;7.80;99.90;;;;;;6253255;28;20470;-58
2022/01/05 16:23:37;;;;;;;5.73;5.03;;;7.90;99.90;;;;;;6249356;28;20474;-57